Time;durP1;ratioP1;P1;durP2;ratioP2;P2;SDS_P1;SDS_P2;PMS_P1;PMS_P2;Temp;Humidity;BMP_temperature;BMP_pressure;BME280_temperature;BME280_humidity;BME280_pressure;Samples;Min_cycle;Max_cycle;Signal;HPM_P1;HPM_P2
2021/09/09 00:01:20;;;;;;;12.82;8.93;;;;;;;16.62;72.87;100924.97;5006721;28;20140;-77
2021/09/09 00:03:45;;;;;;;15.32;9.13;;;;;;;16.62;72.70;100919.72;5011346;28;20041;-77
2021/09/09 00:06:11;;;;;;;13.32;9.13;;;;;;;16.60;72.94;100921.75;5016583;28;20045;-78
2021/09/09 00:08:38;;;;;;;16.02;9.23;;;;;;;16.55;73.25;100923.09;5021682;28;20510;-77
2021/09/09 00:11:04;;;;;;;14.98;9.52;;;;;;;16.51;73.30;100914.03;5015822;28;20036;-77
2021/09/09 00:13:30;;;;;;;13.55;9.02;;;;;;;16.47;73.23;100915.41;5009262;28;20037;-77
2021/09/09 00:15:55;;;;;;;13.75;9.10;;;;;;;16.42;73.27;100917.78;5008729;28;20190;-80
2021/09/09 00:18:24;;;;;;;13.40;9.70;;;;;;;16.33;73.64;100909.28;4990512;28;20034;-78
2021/09/09 00:20:51;;;;;;;13.13;8.63;;;;;;;16.25;73.81;100904.19;5015409;28;20037;-78
2021/09/09 00:23:16;;;;;;;17.63;9.55;;;;;;;16.23;73.95;100898.34;5016096;28;20034;-78
2021/09/09 00:25:43;;;;;;;12.50;8.90;;;;;;;16.20;73.80;100895.28;5015223;28;20375;-77
2021/09/09 00:28:09;;;;;;;16.70;9.68;;;;;;;16.18;73.96;100889.44;4999827;28;20049;-77
2021/09/09 00:30:34;;;;;;;14.95;9.23;;;;;;;16.13;73.87;100892.66;5032027;28;20045;-77
2021/09/09 00:33:00;;;;;;;13.70;9.80;;;;;;;16.10;74.17;100891.19;4992491;28;20087;-77
2021/09/09 00:35:25;;;;;;;21.77;10.77;;;;;;;16.09;74.08;100888.81;5008727;28;20148;-77
2021/09/09 00:37:52;;;;;;;14.02;9.48;;;;;;;16.06;74.03;100887.34;4995450;28;20053;-77
2021/09/09 00:40:17;;;;;;;14.55;8.90;;;;;;;16.07;74.03;100882.94;5003744;28;20441;-77
2021/09/09 00:42:42;;;;;;;15.88;9.55;;;;;;;16.03;74.19;100882.53;5010953;28;20041;-78
2021/09/09 00:45:08;;;;;;;20.10;9.85;;;;;;;15.96;74.43;100873.81;5026820;28;20025;-79
2021/09/09 00:47:35;;;;;;;18.55;9.90;;;;;;;15.89;74.84;100872.94;5023688;28;20140;-77
2021/09/09 00:50:01;;;;;;;12.70;8.68;;;;;;;15.83;74.85;100874.50;4994028;28;20124;-77
2021/09/09 00:52:26;;;;;;;18.90;10.43;;;;;;;15.83;74.97;100884.16;4992965;28;20406;-77
2021/09/09 00:54:52;;;;;;;15.00;9.90;;;;;;;15.79;74.97;100878.50;5012839;28;20115;-78
2021/09/09 00:57:17;;;;;;;17.67;10.50;;;;;;;15.75;74.99;100872.03;5012023;28;20046;-77
2021/09/09 00:59:44;;;;;;;13.45;9.40;;;;;;;15.71;75.01;100865.53;5019057;28;20223;-77
2021/09/09 01:02:10;;;;;;;17.98;10.50;;;;;;;15.69;75.19;100857.88;5003750;28;20049;-77
2021/09/09 01:04:36;;;;;;;18.30;10.15;;;;;;;15.68;75.35;100856.25;5004065;28;20045;-77
2021/09/09 01:07:03;;;;;;;18.48;10.30;;;;;;;15.65;75.39;100853.19;5010275;28;20041;-77
2021/09/09 01:09:28;;;;;;;13.23;9.48;;;;;;;15.63;75.49;100855.19;4996272;28;20040;-77
2021/09/09 01:11:54;;;;;;;17.75;10.02;;;;;;;15.57;75.60;100849.72;5027090;28;20037;-77
2021/09/09 01:14:19;;;;;;;14.20;9.98;;;;;;;15.58;75.42;100850.56;5021165;28;20037;-76
2021/09/09 01:16:46;;;;;;;16.63;10.60;;;;;;;15.53;75.51;100850.28;5032261;28;20423;-77
2021/09/09 01:19:13;;;;;;;20.38;11.73;;;;;;;15.49;75.69;100841.22;4996952;28;20255;-77
2021/09/09 01:21:39;;;;;;;18.30;11.40;;;;;;;15.42;75.77;100845.56;5011958;28;20033;-77
2021/09/09 01:24:12;;;;;;;17.65;11.80;;;;;;;15.43;75.98;100845.38;5010703;28;20038;-78
2021/09/09 01:26:49;;;;;;;18.98;11.27;;;;;;;15.34;76.25;100836.84;5011560;28;20033;-77
2021/09/09 01:29:16;;;;;;;15.10;10.15;;;;;;;15.33;76.25;100843.09;5006551;28;20049;-77
2021/09/09 01:31:41;;;;;;;16.85;10.07;;;;;;;15.34;76.47;100838.66;5017498;28;20067;-77
2021/09/09 01:34:07;;;;;;;14.95;10.07;;;;;;;15.38;76.34;100832.06;5018717;28;20037;-77
2021/09/09 01:36:33;;;;;;;16.10;9.73;;;;;;;15.42;76.37;100841.13;5012024;28;20483;-77
2021/09/09 01:38:58;;;;;;;18.73;10.27;;;;;;;15.43;76.62;100837.53;5006561;28;20047;-78
2021/09/09 01:41:24;;;;;;;14.85;10.18;;;;;;;15.45;76.38;100838.16;5005977;28;20037;-77
2021/09/09 01:43:49;;;;;;;17.13;9.63;;;;;;;15.45;76.37;100839.97;5005002;28;20483;-79
2021/09/09 01:46:15;;;;;;;16.75;10.88;;;;;;;15.45;76.46;100832.94;5018992;28;20026;-77
2021/09/09 01:48:40;;;;;;;14.90;9.65;;;;;;;15.45;76.15;100840.78;5029073;28;20041;-77
2021/09/09 01:51:06;;;;;;;16.92;10.95;;;;;;;15.45;76.29;100832.94;5011754;28;20048;-77
2021/09/09 01:53:31;;;;;;;15.55;10.15;;;;;;;15.43;76.62;100832.31;5032579;28;20068;-77
2021/09/09 01:55:57;;;;;;;18.88;11.65;;;;;;;15.45;76.35;100829.53;5024198;28;20083;-77
2021/09/09 01:58:22;;;;;;;15.80;10.18;;;;;;;15.47;76.35;100830.94;5015536;28;20037;-76
2021/09/09 02:00:48;;;;;;;13.85;10.25;;;;;;;15.49;76.49;100822.94;5019785;28;20056;-77
2021/09/09 02:03:13;;;;;;;15.02;10.35;;;;;;;15.48;76.47;100821.28;5022876;28;20640;-77
2021/09/09 02:05:39;;;;;;;19.30;11.15;;;;;;;15.45;76.57;100816.47;5031700;28;20045;-77
2021/09/09 02:08:04;;;;;;;22.73;12.20;;;;;;;15.43;76.68;100821.06;5002848;28;20044;-77
2021/09/09 02:10:30;;;;;;;22.65;12.50;;;;;;;15.41;76.62;100821.25;5005494;28;20029;-77
2021/09/09 02:12:55;;;;;;;21.27;11.55;;;;;;;15.38;76.83;100816.38;5020723;28;20076;-77
2021/09/09 02:15:21;;;;;;;18.60;11.25;;;;;;;15.35;77.20;100817.56;5017306;28;20036;-76
2021/09/09 02:17:46;;;;;;;19.55;12.20;;;;;;;15.32;76.76;100811.91;5022392;28;20462;-77
2021/09/09 02:20:13;;;;;;;17.65;11.40;;;;;;;15.28;77.19;100801.03;5034017;28;20070;-77
2021/09/09 02:22:39;;;;;;;19.58;11.88;;;;;;;15.25;77.27;100801.41;5002170;28;20639;-77
2021/09/09 02:25:05;;;;;;;19.48;11.60;;;;;;;15.24;77.46;100801.56;5017402;28;20047;-77
2021/09/09 02:27:31;;;;;;;17.05;11.00;;;;;;;15.25;77.22;100808.44;5022512;28;20658;-76
2021/09/09 02:29:56;;;;;;;20.15;11.95;;;;;;;15.24;77.20;100806.81;5012190;28;20041;-76
2021/09/09 02:32:22;;;;;;;18.30;11.63;;;;;;;15.23;77.29;100811.22;5023452;28;20048;-77
2021/09/09 02:34:47;;;;;;;19.42;12.38;;;;;;;15.23;77.16;100797.38;5017149;28;20032;-76
2021/09/09 02:37:13;;;;;;;20.23;12.82;;;;;;;15.19;77.13;100807.38;5003745;28;20056;-76
2021/09/09 02:39:42;;;;;;;23.52;12.27;;;;;;;15.16;77.26;100800.72;5023264;28;20033;-77
2021/09/09 02:42:08;;;;;;;23.45;12.77;;;;;;;15.13;77.43;100803.69;5028299;28;20453;-76
2021/09/09 02:44:34;;;;;;;19.08;10.90;;;;;;;15.09;77.59;100801.66;4998347;28;20033;-77
2021/09/09 02:46:59;;;;;;;21.08;12.52;;;;;;;15.11;77.76;100799.66;5018706;28;20037;-77
2021/09/09 02:49:25;;;;;;;27.00;13.82;;;;;;;15.16;77.43;100802.50;5018626;28;20041;-76
2021/09/09 02:51:50;;;;;;;18.20;10.60;;;;;;;15.16;77.38;100798.13;5010632;28;20045;-76
2021/09/09 02:54:16;;;;;;;16.88;11.40;;;;;;;15.10;77.58;100795.41;5028510;28;20029;-77
2021/09/09 02:56:41;;;;;;;20.02;12.50;;;;;;;15.09;77.74;100794.63;5015684;28;20044;-77
2021/09/09 02:59:07;;;;;;;19.70;13.35;;;;;;;15.07;77.67;100798.41;5009581;28;20525;-76
2021/09/09 03:01:32;;;;;;;20.70;13.10;;;;;;;15.07;77.68;100793.16;5018953;28;20290;-76
2021/09/09 03:03:58;;;;;;;19.42;12.60;;;;;;;15.08;77.61;100802.63;5028578;28;20045;-77
2021/09/09 03:06:23;;;;;;;19.83;12.68;;;;;;;15.05;77.72;100806.44;4993352;28;20470;-77
2021/09/09 03:08:49;;;;;;;28.02;14.35;;;;;;;15.04;77.57;100798.78;5020598;28;20041;-77
2021/09/09 03:11:14;;;;;;;21.42;13.68;;;;;;;15.17;77.32;100799.72;5027995;28;20041;-77
2021/09/09 03:13:40;;;;;;;19.50;12.82;;;;;;;15.08;77.74;100786.97;5023374;28;20041;-76
2021/09/09 03:16:05;;;;;;;20.90;12.68;;;;;;;15.01;77.96;100791.31;5015769;28;20048;-77
2021/09/09 03:18:31;;;;;;;21.83;13.00;;;;;;;14.99;77.61;100794.09;4993254;28;20029;-76
2021/09/09 03:20:56;;;;;;;18.98;12.32;;;;;;;14.98;77.93;100785.47;5015283;28;20550;-77
2021/09/09 03:23:22;;;;;;;20.90;13.20;;;;;;;15.01;77.85;100786.88;5017992;28;20044;-77
2021/09/09 03:25:47;;;;;;;21.05;13.80;;;;;;;14.95;78.29;100787.63;5008267;28;20142;-76
2021/09/09 03:28:13;;;;;;;21.20;13.15;;;;;;;14.91;78.37;100795.03;5009796;28;20056;-77
2021/09/09 03:30:38;;;;;;;21.52;13.02;;;;;;;14.91;78.29;100792.41;5018349;28;20068;-77
2021/09/09 03:33:04;;;;;;;21.52;12.05;;;;;;;14.92;78.38;100788.81;5012744;28;20491;-77
2021/09/09 03:35:30;;;;;;;19.05;11.73;;;;;;;14.90;78.25;100782.97;5001977;28;20041;-77
2021/09/09 03:37:56;;;;;;;20.52;12.23;;;;;;;15.03;77.97;100789.31;4999685;28;20099;-76
2021/09/09 03:40:21;;;;;;;22.17;12.27;;;;;;;15.20;77.53;100788.09;5035668;28;20080;-76
2021/09/09 03:42:47;;;;;;;23.08;12.07;;;;;;;15.23;77.16;100792.13;5015090;28;20550;-77
2021/09/09 03:45:12;;;;;;;21.95;13.27;;;;;;;15.16;77.50;100799.91;5024049;28;20035;-76
2021/09/09 03:47:38;;;;;;;20.45;12.48;;;;;;;15.05;77.84;100801.22;5021650;28;20371;-76
2021/09/09 03:50:04;;;;;;;17.95;12.02;;;;;;;14.99;77.86;100797.53;5000938;28;20037;-76
2021/09/09 03:52:29;;;;;;;18.48;11.23;;;;;;;14.97;77.98;100802.16;5016795;28;20171;-76
2021/09/09 03:54:55;;;;;;;22.15;12.18;;;;;;;14.96;78.07;100799.72;5021210;28;20044;-77
2021/09/09 03:57:20;;;;;;;21.42;11.95;;;;;;;14.97;78.09;100796.09;5020263;28;20033;-76
2021/09/09 03:59:46;;;;;;;20.50;12.40;;;;;;;14.97;78.12;100802.16;5003832;28;20285;-77
2021/09/09 04:02:11;;;;;;;21.02;12.63;;;;;;;15.05;77.62;100796.00;5008029;28;20052;-76
2021/09/09 04:04:37;;;;;;;20.92;13.55;;;;;;;15.24;76.95;100789.34;5010728;28;20040;-76
2021/09/09 04:07:03;;;;;;;20.83;12.48;;;;;;;15.26;76.98;100789.16;4994494;28;20037;-76
2021/09/09 04:09:28;;;;;;;21.70;11.90;;;;;;;15.30;76.79;100787.78;5001664;28;20498;-77
2021/09/09 04:11:54;;;;;;;20.33;11.63;;;;;;;15.34;76.63;100782.00;5013835;28;20036;-76
2021/09/09 04:14:19;;;;;;;18.35;11.73;;;;;;;15.40;76.23;100782.25;5009390;28;20033;-75
2021/09/09 04:16:45;;;;;;;22.65;12.50;;;;;;;15.47;75.63;100781.31;5002678;28;20468;-77
2021/09/09 04:19:11;;;;;;;24.38;12.18;;;;;;;15.41;75.81;100783.84;5015846;28;20093;-76
2021/09/09 04:21:36;;;;;;;20.92;13.10;;;;;;;15.40;76.40;100777.03;5022462;28;20041;-77
2021/09/09 04:24:02;;;;;;;20.88;12.35;;;;;;;15.31;76.50;100765.88;5010419;28;20040;-76
2021/09/09 04:26:27;;;;;;;26.08;14.70;;;;;;;15.17;76.93;100778.81;5015118;28;20045;-76
2021/09/09 04:28:53;;;;;;;20.35;12.18;;;;;;;15.25;76.78;100777.88;5027794;28;20037;-77
2021/09/09 04:31:18;;;;;;;16.10;11.27;;;;;;;15.19;77.10;100773.41;5009461;28;20045;-76
2021/09/09 04:33:44;;;;;;;21.02;13.25;;;;;;;15.22;76.78;100775.66;4997525;28;20419;-75
2021/09/09 04:36:09;;;;;;;20.30;13.23;;;;;;;15.19;76.89;100776.03;5032959;28;20036;-76
2021/09/09 04:38:35;;;;;;;19.83;12.10;;;;;;;15.14;77.15;100776.59;4992078;28;20379;-76
2021/09/09 04:41:01;;;;;;;19.38;12.27;;;;;;;15.19;76.95;100776.81;5029300;28;20025;-75
2021/09/09 04:43:26;;;;;;;19.90;12.02;;;;;;;15.31;76.53;100773.72;5009087;28;20037;-77
2021/09/09 04:45:52;;;;;;;23.08;12.60;;;;;;;15.25;76.36;100770.03;5001233;28;20110;-77
2021/09/09 04:48:18;;;;;;;20.35;12.40;;;;;;;15.25;76.57;100777.09;5018173;28;20045;-77
2021/09/09 04:50:44;;;;;;;19.90;11.20;;;;;;;15.18;76.75;100774.41;5009132;28;20048;-76
2021/09/09 04:53:09;;;;;;;17.63;11.75;;;;;;;15.30;76.41;100772.91;4998157;28;20130;-78
2021/09/09 04:55:35;;;;;;;24.90;12.77;;;;;;;15.20;76.58;100772.44;5012597;28;20080;-78
2021/09/09 04:58:00;;;;;;;20.10;12.30;;;;;;;15.24;76.61;100778.06;5018187;28;20033;-78
2021/09/09 05:00:26;;;;;;;23.08;12.68;;;;;;;15.25;76.53;100785.72;5008491;28;20538;-77
2021/09/09 05:02:51;;;;;;;20.80;12.38;;;;;;;15.29;76.42;100778.31;5013010;28;20124;-77
2021/09/09 05:05:17;;;;;;;19.73;11.70;;;;;;;15.30;76.26;100772.91;5008322;28;20045;-76
2021/09/09 05:07:43;;;;;;;22.55;11.68;;;;;;;15.33;75.91;100776.94;5008439;28;20041;-76
2021/09/09 05:10:09;;;;;;;19.48;11.27;;;;;;;15.33;76.08;100779.56;5010061;28;20452;-77
2021/09/09 05:12:35;;;;;;;27.25;12.05;;;;;;;15.31;76.29;100771.94;5013052;28;20041;-77
2021/09/09 05:15:01;;;;;;;18.45;11.90;;;;;;;15.36;75.81;100769.53;5000450;28;20052;-76
2021/09/09 05:17:26;;;;;;;21.42;11.15;;;;;;;15.41;75.95;100768.16;5011154;28;20037;-77
2021/09/09 05:19:52;;;;;;;18.13;10.88;;;;;;;15.24;76.41;100780.69;5011855;28;20407;-77
2021/09/09 05:22:17;;;;;;;22.25;12.00;;;;;;;15.30;76.09;100772.13;4996318;28;20436;-76
2021/09/09 05:24:43;;;;;;;23.50;12.23;;;;;;;15.46;75.64;100774.44;5010959;28;20052;-77
2021/09/09 05:27:08;;;;;;;18.65;10.57;;;;;;;15.33;76.18;100774.34;5031853;28;20033;-76
2021/09/09 05:29:34;;;;;;;21.92;12.77;;;;;;;15.26;76.53;100761.22;5012356;28;20119;-77
2021/09/09 05:31:59;;;;;;;19.92;11.40;;;;;;;15.46;75.81;100768.41;5021257;28;20033;-76
2021/09/09 05:34:24;;;;;;;22.35;11.80;;;;;;;15.46;75.60;100769.22;4996943;28;20029;-76
2021/09/09 05:36:50;;;;;;;22.58;12.38;;;;;;;15.44;75.93;100773.81;5011156;28;20045;-77
2021/09/09 05:39:15;;;;;;;20.10;12.63;;;;;;;15.46;76.03;100777.06;5032612;28;20049;-77
2021/09/09 05:41:41;;;;;;;19.58;11.77;;;;;;;15.44;76.08;100778.25;5015618;28;20040;-77
2021/09/09 05:44:06;;;;;;;22.80;12.13;;;;;;;15.42;76.26;100780.25;5033664;28;20052;-76
2021/09/09 05:46:32;;;;;;;21.63;11.95;;;;;;;15.50;75.79;100780.94;5005968;28;20041;-77
2021/09/09 05:48:57;;;;;;;23.65;12.98;;;;;;;15.65;75.11;100773.00;5010515;28;20048;-77
2021/09/09 05:51:23;;;;;;;21.60;11.27;;;;;;;15.59;75.22;100768.53;5014798;28;20080;-76
2021/09/09 05:53:48;;;;;;;21.98;12.88;;;;;;;15.59;75.55;100776.34;5036149;28;20498;-73
2021/09/09 05:56:14;;;;;;;21.65;12.98;;;;;;;15.66;75.41;100776.41;5019361;28;20487;-75
2021/09/09 05:58:40;;;;;;;16.77;10.15;;;;;;;15.67;74.76;100771.00;5004082;28;20051;-75
2021/09/09 06:01:06;;;;;;;20.25;11.45;;;;;;;15.89;73.84;100766.53;5000304;28;20042;-75
2021/09/09 06:03:31;;;;;;;21.80;11.32;;;;;;;15.99;73.56;100768.81;5039701;28;20037;-75
2021/09/09 06:06:06;;;;;;;17.45;10.02;;;;;;;15.92;73.61;100766.16;5018253;28;20033;-76
2021/09/09 06:08:32;;;;;;;19.13;11.73;;;;;;;16.06;73.57;100772.28;4999592;28;20040;-75
2021/09/09 06:10:58;;;;;;;19.20;11.13;;;;;;;16.11;73.11;100772.50;5037604;28;20033;-75
2021/09/09 06:13:24;;;;;;;18.55;10.73;;;;;;;16.13;73.45;100764.47;5011536;28;20047;-77
2021/09/09 06:15:50;;;;;;;19.77;11.63;;;;;;;16.23;72.83;100766.75;5029306;28;20040;-78
2021/09/09 06:18:16;;;;;;;20.52;11.15;;;;;;;16.26;72.71;100771.59;5036036;28;20091;-77
2021/09/09 06:20:41;;;;;;;18.08;10.70;;;;;;;16.40;72.50;100775.06;5021625;28;20029;-74
2021/09/09 06:23:07;;;;;;;15.43;9.88;;;;;;;16.45;72.61;100773.47;5020758;28;20040;-74
2021/09/09 06:25:33;;;;;;;15.63;10.57;;;;;;;16.42;72.72;100783.53;5016858;28;20553;-77
2021/09/09 06:27:58;;;;;;;19.50;12.02;;;;;;;16.50;72.82;100781.56;5018568;28;20041;-76
2021/09/09 06:30:24;;;;;;;21.92;11.57;;;;;;;16.62;72.26;100778.38;5031293;28;20037;-75
2021/09/09 06:32:49;;;;;;;18.48;11.15;;;;;;;16.80;71.59;100769.97;5014812;28;20029;-77
2021/09/09 06:35:15;;;;;;;18.70;11.13;;;;;;;16.80;72.07;100783.88;5002533;28;20029;-76
2021/09/09 06:37:40;;;;;;;20.45;12.10;;;;;;;16.95;71.93;100780.31;5026501;28;20025;-75
2021/09/09 06:40:08;;;;;;;26.90;11.13;;;;;;;17.00;71.27;100783.16;5013678;28;20050;-77
2021/09/09 06:42:33;;;;;;;20.70;10.93;;;;;;;17.22;70.31;100779.34;5006718;28;20056;-76
2021/09/09 06:44:59;;;;;;;22.33;11.07;;;;;;;17.44;69.87;100779.16;5026741;28;20518;-77
2021/09/09 06:47:24;;;;;;;18.13;11.18;;;;;;;17.70;68.90;100781.75;5011996;28;20422;-76
2021/09/09 06:49:50;;;;;;;16.63;10.85;;;;;;;18.18;66.83;100772.03;5006016;28;20072;-76
2021/09/09 06:52:16;;;;;;;22.13;12.00;;;;;;;18.84;65.02;100761.25;5010297;28;20092;-78
2021/09/09 06:54:42;;;;;;;19.50;10.88;;;;;;;19.57;62.40;100762.53;4995987;28;20030;-78
2021/09/09 06:57:07;;;;;;;18.77;10.98;;;;;;;20.19;61.00;100759.06;5009742;28;20057;-77
2021/09/09 06:59:33;;;;;;;16.80;10.27;;;;;;;20.45;60.02;100754.50;5012096;28;20068;-78
2021/09/09 07:01:58;;;;;;;25.85;11.77;;;;;;;20.80;57.85;100750.19;5010279;28;20045;-76
2021/09/09 07:04:24;;;;;;;18.25;10.07;;;;;;;21.11;57.49;100745.66;5027851;28;20546;-76
2021/09/09 07:06:49;;;;;;;17.83;9.77;;;;;;;21.53;56.56;100748.25;5017597;28;20064;-75
2021/09/09 07:09:15;;;;;;;22.98;10.35;;;;;;;21.66;55.61;100747.22;5016501;28;20033;-77
2021/09/09 07:11:41;;;;;;;19.25;11.23;;;;;;;21.97;56.61;100746.03;5016244;28;20438;-76
2021/09/09 07:14:07;;;;;;;16.75;9.70;;;;;;;22.19;55.69;100748.03;5027680;28;20052;-76
2021/09/09 07:16:32;;;;;;;18.77;10.50;;;;;;;22.20;55.25;100754.91;5031611;28;20033;-77
2021/09/09 07:18:58;;;;;;;16.60;10.27;;;;;;;22.22;55.18;100741.50;5036819;28;20067;-76
2021/09/09 07:21:23;;;;;;;54.00;10.88;;;;;;;22.37;54.82;100748.94;4996305;28;20014;-77
2021/09/09 07:23:48;;;;;;;19.27;10.40;;;;;;;22.72;54.17;100754.06;5027535;28;20179;-77
2021/09/09 07:26:14;;;;;;;17.05;10.75;;;;;;;23.27;53.18;100742.81;5020599;28;20090;-76
2021/09/09 07:28:40;;;;;;;15.02;9.60;;;;;;;23.60;52.06;100741.19;5001463;28;20033;-76
2021/09/09 07:31:05;;;;;;;21.15;9.75;;;;;;;23.61;51.59;100747.25;4995056;28;20041;-77
2021/09/09 07:33:31;;;;;;;17.23;11.50;;;;;;;23.49;51.23;100744.72;5014490;28;20116;-75
2021/09/09 07:35:56;;;;;;;18.13;10.27;;;;;;;23.48;51.89;100758.97;5020043;28;20044;-76
2021/09/09 07:38:21;;;;;;;15.82;9.88;;;;;;;23.46;51.63;100761.06;5017755;28;20040;-78
2021/09/09 07:40:47;;;;;;;20.65;10.93;;;;;;;23.19;51.73;100767.03;5031888;28;20036;-76
2021/09/09 07:43:13;;;;;;;16.50;9.50;;;;;;;23.24;51.82;100761.00;5010155;28;20056;-77
2021/09/09 07:45:38;;;;;;;18.33;10.35;;;;;;;23.60;51.44;100769.47;5027295;28;20028;-76
2021/09/09 07:48:05;;;;;;;17.23;10.20;;;;;;;23.51;50.76;100767.25;5000966;28;20034;-80
2021/09/09 07:50:30;;;;;;;15.55;8.98;;;;;;;24.01;50.77;100765.53;4995479;28;20061;-77
2021/09/09 07:52:57;;;;;;;19.98;9.90;;;;;;;23.92;50.43;100764.34;5000149;28;20073;-77
2021/09/09 07:55:23;;;;;;;17.00;10.68;;;;;;;24.21;50.00;100758.91;5017207;28;20025;-77
2021/09/09 07:57:48;;;;;;;20.40;10.32;;;;;;;24.51;49.28;100763.72;4998518;28;20072;-77
2021/09/09 08:00:15;;;;;;;14.73;9.15;;;;;;;24.90;49.27;100768.06;5006849;28;20111;-79
2021/09/09 08:02:40;;;;;;;18.05;9.57;;;;;;;25.11;47.87;100772.50;5000657;28;20554;-78
2021/09/09 08:05:06;;;;;;;19.48;11.10;;;;;;;24.98;47.93;100771.06;5031311;28;20045;-77
2021/09/09 08:07:38;;;;;;;14.93;9.10;;;;;;;24.84;48.10;100761.91;5007849;28;20037;-76
2021/09/09 08:10:04;;;;;;;20.25;9.20;;;;;;;24.96;48.67;100770.53;5017118;28;20037;-79
2021/09/09 08:12:30;;;;;;;13.48;8.95;;;;;;;25.11;47.71;100766.38;5000335;28;20033;-76
2021/09/09 08:14:55;;;;;;;19.40;8.68;;;;;;;25.20;47.63;100762.19;5009167;28;20030;-79
2021/09/09 08:17:20;;;;;;;18.20;9.73;;;;;;;25.19;47.69;100760.63;5000243;28;20061;-77
2021/09/09 08:19:46;;;;;;;21.17;9.82;;;;;;;25.46;47.71;100768.50;5013695;28;20045;-78
2021/09/09 08:22:11;;;;;;;19.70;10.05;;;;;;;25.52;46.68;100772.00;5028441;28;20525;-77
2021/09/09 08:24:37;;;;;;;14.70;9.10;;;;;;;25.77;47.04;100779.31;5006432;28;20044;-77
2021/09/09 08:27:03;;;;;;;16.00;8.77;;;;;;;26.22;47.14;100781.38;5027170;28;20025;-78
2021/09/09 08:29:28;;;;;;;13.40;8.65;;;;;;;26.46;46.18;100775.59;5031482;28;20520;-79
2021/09/09 08:31:53;;;;;;;12.63;8.50;;;;;;;26.62;46.45;100779.13;5003320;28;20457;-79
2021/09/09 08:34:19;;;;;;;17.67;9.18;;;;;;;26.91;44.85;100773.28;5020796;28;20032;-77
2021/09/09 08:36:44;;;;;;;17.33;8.75;;;;;;;26.79;45.09;100789.50;5020756;28;20045;-78
2021/09/09 08:39:10;;;;;;;20.38;9.10;;;;;;;26.91;45.15;100776.72;4995098;28;20042;-77
2021/09/09 08:41:36;;;;;;;15.38;9.65;;;;;;;26.93;44.60;100779.91;5005426;28;20033;-78
2021/09/09 08:44:01;;;;;;;13.95;7.88;;;;;;;27.29;44.57;100777.28;5010521;28;20033;-78
2021/09/09 08:46:27;;;;;;;16.25;9.02;;;;;;;27.10;45.03;100774.34;5023309;28;20025;-78
2021/09/09 08:48:55;;;;;;;13.48;8.10;;;;;;;27.28;45.78;100785.53;5002928;28;20029;-76
2021/09/09 08:51:21;;;;;;;20.10;9.20;;;;;;;27.33;44.20;100770.38;5028033;28;20727;-78
2021/09/09 08:53:46;;;;;;;16.20;8.98;;;;;;;27.47;43.69;100770.59;5010618;28;20025;-79
2021/09/09 08:56:13;;;;;;;13.68;8.80;;;;;;;27.30;44.27;100768.22;4992481;28;20025;-78
2021/09/09 08:58:39;;;;;;;14.23;8.88;;;;;;;27.48;43.52;100766.88;5039247;28;20036;-81
2021/09/09 09:01:17;;;;;;;15.32;10.05;;;;;;;27.40;45.11;100766.63;4998307;28;20124;-80
2021/09/09 09:03:53;;;;;;;22.70;8.32;;;;;;;27.74;43.69;100772.13;5014677;28;20041;-77
2021/09/09 09:06:21;;;;;;;19.42;9.23;;;;;;;27.61;43.28;100764.69;5004421;28;20491;-78
2021/09/09 09:08:56;;;;;;;14.32;8.73;;;;;;;27.54;44.28;100773.00;5018528;28;20029;-78
2021/09/09 09:11:30;;;;;;;18.90;8.45;;;;;;;27.80;45.56;100770.22;5015053;28;20045;-83
2021/09/09 09:13:56;;;;;;;21.00;8.30;;;;;;;27.77;44.02;100769.72;5001043;28;20491;-78
2021/09/09 09:16:23;;;;;;;14.23;8.90;;;;;;;27.62;46.10;100768.97;4997601;28;20518;-80
2021/09/09 09:18:49;;;;;;;14.68;8.05;;;;;;;27.48;45.89;100761.56;5031302;28;20101;-82
2021/09/09 09:21:16;;;;;;;12.55;7.40;;;;;;;27.65;46.21;100761.25;5016621;28;20052;-81
2021/09/09 09:23:54;;;;;;;11.15;6.72;;;;;;;27.56;46.33;100763.66;5028446;28;20530;-80
2021/09/09 09:26:20;;;;;;;18.45;6.60;;;;;;;27.84;45.50;100766.75;5021603;28;20039;-79
2021/09/09 09:28:51;;;;;;;16.50;7.68;;;;;;;27.67;45.34;100761.75;5002011;28;20480;-78
2021/09/09 09:31:23;;;;;;;15.45;6.80;;;;;;;27.95;45.84;100771.00;5022259;28;20079;-82
2021/09/09 09:33:54;;;;;;;12.05;7.00;;;;;;;27.89;45.09;100773.97;5031921;28;20501;-80
2021/09/09 09:36:27;;;;;;;10.60;6.28;;;;;;;27.89;46.79;100766.75;5013379;28;20040;-80
2021/09/09 09:39:14;;;;;;;13.95;7.40;;;;;;;27.89;45.66;100764.09;5016267;28;20029;-78
2021/09/09 09:41:53;;;;;;;16.20;7.95;;;;;;;27.86;46.16;100755.81;5030910;28;20453;-80
2021/09/09 09:44:30;;;;;;;15.18;7.63;;;;;;;27.81;45.86;100764.63;4995561;28;20033;-79
2021/09/09 09:47:11;;;;;;;14.82;7.80;;;;;;;27.69;47.12;100764.13;5002736;28;20469;-82
2021/09/09 09:49:42;;;;;;;19.65;7.28;;;;;;;27.74;47.41;100766.78;5014716;28;20186;-80
2021/09/09 09:52:09;;;;;;;19.10;8.25;;;;;;;27.79;48.85;100764.13;5015486;28;20072;-80
2021/09/09 09:54:35;;;;;;;15.48;7.95;;;;;;;27.98;47.97;100753.66;5037770;28;20095;-83
2021/09/09 09:57:01;;;;;;;13.73;7.05;;;;;;;28.07;49.02;100757.34;5034944;28;20025;-81
2021/09/09 09:59:27;;;;;;;11.77;6.55;;;;;;;28.07;46.60;100762.69;4996849;28;20513;-82
2021/09/09 10:01:52;;;;;;;14.63;6.22;;;;;;;28.04;47.82;100760.56;5030684;28;20052;-81
2021/09/09 10:04:20;;;;;;;11.65;6.68;;;;;;;27.95;47.76;100763.03;5012590;28;20040;-82
2021/09/09 10:06:47;;;;;;;10.75;6.97;;;;;;;28.04;49.14;100754.44;5032219;28;20033;-83
2021/09/09 10:09:13;;;;;;;11.52;6.82;;;;;;;28.06;48.36;100758.41;4998295;28;20076;-80
2021/09/09 10:11:39;;;;;;;11.35;6.80;;;;;;;28.03;48.83;100758.97;5018485;28;20037;-81
2021/09/09 10:14:05;;;;;;;18.05;7.70;;;;;;;27.96;48.26;100753.16;5018093;28;20041;-79
2021/09/09 10:16:36;;;;;;;10.68;7.03;;;;;;;28.09;48.37;100749.88;5016060;28;20021;-82
2021/09/09 10:19:02;;;;;;;12.57;6.90;;;;;;;28.00;48.82;100758.72;5011253;28;20048;-79
2021/09/09 10:21:48;;;;;;;15.07;8.10;;;;;;;28.05;47.91;100764.00;5019535;28;20261;-79
2021/09/09 10:24:15;;;;;;;12.50;6.88;;;;;;;28.01;49.38;100750.47;5015864;28;20033;-77
2021/09/09 10:26:41;;;;;;;9.25;6.95;;;;;;;28.28;48.68;100751.91;5002795;28;20069;-79
2021/09/09 10:29:09;;;;;;;12.93;7.53;;;;;;;28.13;48.56;100750.94;4995757;28;20041;-80
2021/09/09 10:31:42;;;;;;;11.25;7.47;;;;;;;28.31;48.25;100756.69;4999583;28;20036;-81
2021/09/09 10:34:23;;;;;;;15.90;7.30;;;;;;;28.29;50.13;100756.16;5029392;28;20033;-79
2021/09/09 10:36:48;;;;;;;13.88;8.10;;;;;;;28.23;48.20;100759.94;5013166;28;20175;-80
2021/09/09 10:39:35;;;;;;;11.18;7.35;;;;;;;28.13;49.35;100764.25;5000720;28;20045;-80
2021/09/09 10:42:39;;;;;;;13.48;7.68;;;;;;;28.11;50.31;100758.41;5012723;28;20403;-81
2021/09/09 10:45:11;;;;;;;14.07;7.50;;;;;;;28.01;49.56;100766.47;5006777;28;20038;-78
2021/09/09 10:47:49;;;;;;;12.50;7.32;;;;;;;27.91;49.83;100761.16;5025030;28;20056;-82
2021/09/09 10:50:15;;;;;;;13.15;7.03;;;;;;;28.14;49.07;100765.84;5010812;28;20041;-82
2021/09/09 10:53:01;;;;;;;12.00;7.30;;;;;;;28.05;48.84;100770.16;5000606;28;20037;-79
2021/09/09 10:55:28;;;;;;;14.38;7.40;;;;;;;28.04;49.56;100765.88;5032631;28;20056;-76
2021/09/09 10:58:12;;;;;;;11.18;7.47;;;;;;;27.91;50.02;100759.28;5029056;28;20394;-78
2021/09/09 11:00:50;;;;;;;11.13;7.00;;;;;;;27.95;50.17;100765.69;5033267;28;20039;-80
2021/09/09 11:03:34;;;;;;;13.65;8.38;;;;;;;27.90;50.33;100764.91;5027018;28;20033;-82
2021/09/09 11:06:01;;;;;;;13.00;8.20;;;;;;;28.29;49.95;100772.16;5002821;28;20048;-77
2021/09/09 11:08:28;;;;;;;17.45;7.75;;;;;;;28.12;49.22;100762.69;5019631;28;20457;-79
2021/09/09 11:10:53;;;;;;;10.55;7.90;;;;;;;27.96;51.35;100758.47;5035681;28;20131;-78